Time;durP1;ratioP1;P1;durP2;ratioP2;P2;SDS_P1;SDS_P2;PMS_P1;PMS_P2;Temp;Humidity;BMP_temperature;BMP_pressure;BME280_temperature;BME280_humidity;BME280_pressure;Samples;Min_cycle;Max_cycle;Signal;HPM_P1;HPM_P2
2022/08/14 00:01:45;;;;;;;1.92;1.75;;;26.70;92.00;;;;;;4215936;27;20684;-71
2022/08/14 00:03:47;;;;;;;2.60;2.10;;;26.70;92.20;;;;;;4220262;27;20302;-71
2022/08/14 00:05:50;;;;;;;1.90;1.50;;;26.70;91.90;;;;;;4221943;27;20278;-71
2022/08/14 00:07:52;;;;;;;2.33;2.13;;;26.70;91.90;;;;;;4222307;27;20284;-71
2022/08/14 00:09:56;;;;;;;2.33;1.92;;;26.70;91.80;;;;;;4218656;27;20263;-71
2022/08/14 00:11:58;;;;;;;2.03;1.80;;;26.70;91.80;;;;;;4224596;28;20226;-71
2022/08/14 00:14:01;;;;;;;1.95;1.85;;;26.70;91.90;;;;;;4221204;28;20701;-71
2022/08/14 00:16:04;;;;;;;2.65;1.90;;;26.70;92.10;;;;;;4219609;28;20276;-71
2022/08/14 00:18:08;;;;;;;2.10;1.90;;;26.60;92.10;;;;;;4225581;28;20214;-71
2022/08/14 00:20:11;;;;;;;2.30;2.10;;;26.70;91.90;;;;;;4228604;27;20222;-71
2022/08/14 00:22:17;;;;;;;2.10;1.90;;;26.70;91.90;;;;;;4217361;28;20206;-71
2022/08/14 00:24:20;;;;;;;2.20;2.00;;;26.70;92.00;;;;;;4241923;27;20205;-71
2022/08/14 00:26:25;;;;;;;2.22;2.03;;;26.70;91.90;;;;;;4230191;27;20708;-71
2022/08/14 00:28:27;;;;;;;2.40;2.20;;;26.70;92.10;;;;;;4218958;28;20279;-71
2022/08/14 00:30:30;;;;;;;2.45;1.90;;;26.70;92.40;;;;;;4228063;27;20258;-71
2022/08/14 00:32:32;;;;;;;2.28;2.00;;;26.60;92.10;;;;;;4245608;27;20265;-71
2022/08/14 00:34:34;;;;;;;2.10;1.90;;;26.70;92.40;;;;;;4240799;27;20234;-71
2022/08/14 00:36:37;;;;;;;2.00;1.80;;;26.60;92.10;;;;;;4228518;27;20214;-71
2022/08/14 00:38:39;;;;;;;1.90;1.80;;;26.70;92.10;;;;;;4230700;27;20275;-71
2022/08/14 00:40:42;;;;;;;2.38;1.83;;;26.60;92.00;;;;;;4243451;27;20242;-71
2022/08/14 00:42:46;;;;;;;2.78;2.00;;;26.60;92.00;;;;;;4246677;27;20250;-71
2022/08/14 00:44:48;;;;;;;2.10;1.90;;;26.60;91.90;;;;;;4235563;27;20221;-71
2022/08/14 00:46:50;;;;;;;2.00;1.90;;;26.60;92.00;;;;;;4236272;27;20289;-71
2022/08/14 00:48:52;;;;;;;2.97;2.00;;;26.60;92.00;;;;;;4243006;27;20575;-71
2022/08/14 00:50:55;;;;;;;1.95;1.85;;;26.60;91.90;;;;;;4245997;27;20274;-71
2022/08/14 00:52:59;;;;;;;1.90;1.80;;;26.60;92.00;;;;;;4232790;27;20625;-71
2022/08/14 00:55:03;;;;;;;2.30;2.10;;;26.60;91.90;;;;;;4236075;27;20278;-71
2022/08/14 00:57:05;;;;;;;2.67;2.10;;;26.60;92.00;;;;;;4240973;27;20242;-71
2022/08/14 00:59:10;;;;;;;2.65;2.00;;;26.60;91.90;;;;;;4218406;27;20214;-71
2022/08/14 01:01:13;;;;;;;3.35;1.92;;;26.60;91.90;;;;;;4229401;28;20214;-71
2022/08/14 01:03:16;;;;;;;1.70;1.60;;;26.60;91.80;;;;;;4236830;27;20261;-71
2022/08/14 01:05:23;;;;;;;2.00;1.80;;;26.50;92.20;;;;;;4222638;28;20617;-71
2022/08/14 01:07:28;;;;;;;2.08;1.77;;;26.60;92.10;;;;;;4226169;27;20254;-71
2022/08/14 01:09:31;;;;;;;1.88;1.67;;;26.50;91.80;;;;;;4229407;28;20225;-71
2022/08/14 01:11:33;;;;;;;3.42;2.20;;;26.50;91.90;;;;;;4229535;28;20217;-71
2022/08/14 01:13:38;;;;;;;1.88;1.70;;;26.50;91.80;;;;;;4231694;27;20218;-71
2022/08/14 01:15:42;;;;;;;2.08;1.98;;;26.50;91.90;;;;;;4236880;27;20662;-71
2022/08/14 01:22:29;;;;;;;1.80;1.70;;;26.50;91.90;;;;;;4207830;28;20246;-71
2022/08/14 01:24:32;;;;;;;1.70;1.60;;;26.50;91.90;;;;;;4221430;28;20211;-71
2022/08/14 01:26:35;;;;;;;2.78;1.88;;;26.50;92.00;;;;;;4231313;27;20617;-71
2022/08/14 01:28:37;;;;;;;2.70;2.00;;;26.50;91.80;;;;;;4226282;28;20291;-71
2022/08/14 01:30:42;;;;;;;2.30;2.10;;;26.50;91.90;;;;;;4230023;27;20475;-71
2022/08/14 01:32:45;;;;;;;2.03;1.60;;;26.50;91.90;;;;;;4224828;27;20221;-71
2022/08/14 01:34:49;;;;;;;3.35;2.00;;;26.50;91.90;;;;;;4225358;27;21018;-71
2022/08/14 01:36:52;;;;;;;1.80;1.70;;;26.50;91.80;;;;;;4229168;27;20671;-71
2022/08/14 01:38:56;;;;;;;2.28;1.77;;;26.50;92.10;;;;;;4226227;28;20267;-71
2022/08/14 01:41:00;;;;;;;2.72;1.70;;;26.50;91.90;;;;;;4229131;28;20218;-71
2022/08/14 01:43:02;;;;;;;3.10;1.98;;;26.50;91.80;;;;;;4228432;28;20287;-71
2022/08/14 01:45:11;;;;;;;1.65;1.52;;;26.50;91.80;;;;;;4224601;28;20603;-71
2022/08/14 01:47:14;;;;;;;1.92;1.73;;;26.50;91.90;;;;;;4227055;28;20286;-71
2022/08/14 01:49:16;;;;;;;1.83;1.73;;;26.50;91.90;;;;;;4228398;27;20218;-71
2022/08/14 01:51:21;;;;;;;2.25;1.92;;;26.50;91.80;;;;;;4228462;28;20213;-71
2022/08/14 01:53:24;;;;;;;2.00;1.80;;;26.50;91.90;;;;;;4225114;27;20217;-71
2022/08/14 01:55:30;;;;;;;2.03;1.83;;;26.50;91.90;;;;;;4223197;28;20314;-71
2022/08/14 01:57:33;;;;;;;1.90;1.80;;;26.50;91.80;;;;;;4225838;28;20233;-71
2022/08/14 01:59:36;;;;;;;2.13;1.92;;;26.50;91.80;;;;;;4221562;28;20275;-71
2022/08/14 02:01:38;;;;;;;2.53;1.85;;;26.40;91.70;;;;;;4228248;28;20658;-71
2022/08/14 02:03:41;;;;;;;2.42;2.15;;;26.50;91.70;;;;;;4226820;28;20222;-71
2022/08/14 02:05:44;;;;;;;1.95;1.85;;;26.50;91.70;;;;;;4224723;28;20643;-71
2022/08/14 02:07:46;;;;;;;2.35;1.80;;;26.40;91.70;;;;;;4226892;28;20213;-71
2022/08/14 02:09:48;;;;;;;2.22;1.92;;;26.40;91.80;;;;;;4228734;28;20209;-71
2022/08/14 02:11:53;;;;;;;2.03;1.90;;;26.40;91.70;;;;;;4225958;28;20226;-71
2022/08/14 02:13:58;;;;;;;2.10;1.90;;;26.40;92.10;;;;;;4227874;28;20213;-71
2022/08/14 02:16:00;;;;;;;2.85;1.92;;;26.40;91.70;;;;;;4226510;28;20221;-71
2022/08/14 02:18:03;;;;;;;2.05;1.85;;;26.40;91.80;;;;;;4226945;28;20298;-71
2022/08/14 02:20:07;;;;;;;1.98;1.80;;;26.40;91.80;;;;;;4227693;28;20284;-71
2022/08/14 02:22:09;;;;;;;3.10;1.95;;;26.40;91.80;;;;;;4221453;28;20249;-71
2022/08/14 02:24:12;;;;;;;2.00;1.80;;;26.40;92.00;;;;;;4221988;28;20218;-71
2022/08/14 02:26:19;;;;;;;3.75;1.73;;;26.40;91.80;;;;;;4226533;28;20279;-71
2022/08/14 02:28:23;;;;;;;2.08;1.88;;;26.40;91.90;;;;;;4225745;28;20271;-71
2022/08/14 02:30:25;;;;;;;1.92;1.75;;;26.40;92.00;;;;;;4221572;28;20209;-71
2022/08/14 02:32:28;;;;;;;2.70;1.73;;;26.40;91.80;;;;;;4228221;28;20235;-71
2022/08/14 02:34:32;;;;;;;2.13;1.83;;;26.40;91.90;;;;;;4218973;28;20307;-71
2022/08/14 02:36:34;;;;;;;2.17;1.92;;;26.40;91.90;;;;;;4224657;28;20217;-71
2022/08/14 02:38:39;;;;;;;2.25;2.05;;;26.40;92.00;;;;;;4216178;28;20214;-71
2022/08/14 02:40:41;;;;;;;2.20;1.70;;;26.30;92.00;;;;;;4219073;28;20217;-71
2022/08/14 02:42:44;;;;;;;1.90;1.60;;;26.40;91.90;;;;;;4222561;28;20205;-71
2022/08/14 02:44:48;;;;;;;2.08;1.88;;;26.40;92.00;;;;;;4225523;28;20722;-71
2022/08/14 02:46:52;;;;;;;2.15;1.90;;;26.30;91.90;;;;;;4215452;28;20230;-71
2022/08/14 02:48:55;;;;;;;3.40;1.80;;;26.40;92.00;;;;;;4218197;28;20221;-71
2022/08/14 02:50:58;;;;;;;2.15;1.95;;;26.30;91.90;;;;;;4219393;28;20272;-71
2022/08/14 02:53:00;;;;;;;1.95;1.85;;;26.30;92.00;;;;;;4224117;28;20255;-71
2022/08/14 02:55:04;;;;;;;2.63;2.00;;;26.30;91.70;;;;;;4224602;28;20229;-71
2022/08/14 02:57:07;;;;;;;2.78;1.80;;;26.40;92.00;;;;;;4218340;28;20219;-71
2022/08/14 02:59:12;;;;;;;1.85;1.70;;;26.30;92.10;;;;;;4214925;28;20275;-71
2022/08/14 03:01:18;;;;;;;2.30;1.90;;;26.30;91.90;;;;;;4210012;28;20618;-71
2022/08/14 03:03:22;;;;;;;2.58;1.92;;;26.30;92.00;;;;;;4225518;28;20217;-71
2022/08/14 03:05:29;;;;;;;2.03;1.90;;;26.30;91.90;;;;;;4217967;28;20317;-71
2022/08/14 03:07:31;;;;;;;1.92;1.75;;;26.30;92.30;;;;;;4214884;28;20226;-71
2022/08/14 03:09:33;;;;;;;3.08;1.83;;;26.30;91.90;;;;;;4214152;28;20304;-71
2022/08/14 03:11:36;;;;;;;2.22;2.03;;;26.30;92.00;;;;;;4222600;28;20217;-71
2022/08/14 03:13:41;;;;;;;1.70;1.60;;;26.30;92.10;;;;;;4218797;28;20213;-71
2022/08/14 03:15:46;;;;;;;1.90;1.80;;;26.30;92.10;;;;;;4227260;28;20237;-71
2022/08/14 03:17:51;;;;;;;2.20;2.00;;;26.30;91.90;;;;;;4214391;28;20267;-71
2022/08/14 03:19:54;;;;;;;2.05;1.90;;;26.30;92.10;;;;;;4223612;28;20364;-71
2022/08/14 03:21:56;;;;;;;1.95;1.75;;;26.30;92.00;;;;;;4220390;28;20218;-71
2022/08/14 03:24:08;;;;;;;2.80;2.10;;;26.30;92.10;;;;;;4217607;28;20218;-71
2022/08/14 03:26:11;;;;;;;1.92;1.73;;;26.30;92.10;;;;;;4213633;28;20205;-71
2022/08/14 03:28:14;;;;;;;2.03;1.92;;;26.20;92.00;;;;;;4216150;28;20210;-71
2022/08/14 03:30:17;;;;;;;4.63;1.92;;;26.30;92.10;;;;;;4224601;28;20302;-71
2022/08/14 03:32:19;;;;;;;1.90;1.80;;;26.20;92.10;;;;;;4216844;28;20393;-71
2022/08/14 03:34:23;;;;;;;2.47;2.13;;;26.30;92.30;;;;;;4215616;28;20214;-71
2022/08/14 03:36:25;;;;;;;2.13;1.92;;;26.20;92.20;;;;;;4219363;28;20711;-71
2022/08/14 03:38:29;;;;;;;2.75;2.00;;;26.20;92.10;;;;;;4226610;28;20214;-71
2022/08/14 03:40:31;;;;;;;2.42;2.00;;;26.20;92.10;;;;;;4225591;28;20227;-71
2022/08/14 03:42:35;;;;;;;2.08;1.92;;;26.20;92.10;;;;;;4226452;28;20210;-71
2022/08/14 03:44:40;;;;;;;2.40;1.95;;;26.20;92.10;;;;;;4219341;28;20289;-71
2022/08/14 03:46:42;;;;;;;2.28;2.08;;;26.20;92.00;;;;;;4225373;28;20758;-71
2022/08/14 03:48:45;;;;;;;3.00;1.90;;;26.20;92.20;;;;;;4224213;28;20248;-71
2022/08/14 03:50:51;;;;;;;2.15;1.77;;;26.20;92.20;;;;;;4228419;28;20223;-71
2022/08/14 03:52:53;;;;;;;2.10;1.90;;;26.20;92.50;;;;;;4229146;28;20584;-71
2022/08/14 03:54:56;;;;;;;1.77;1.60;;;26.20;92.20;;;;;;4226172;28;20576;-71
2022/08/14 03:56:59;;;;;;;2.20;1.90;;;26.20;92.20;;;;;;4223103;28;20673;-71
2022/08/14 03:59:10;;;;;;;2.00;1.90;;;26.20;92.10;;;;;;4220472;28;20218;-71
2022/08/14 04:01:13;;;;;;;3.05;1.85;;;26.20;92.20;;;;;;4228189;28;20264;-71
2022/08/14 04:03:15;;;;;;;2.30;2.10;;;26.20;92.10;;;;;;4227189;28;20222;-71
2022/08/14 04:05:17;;;;;;;2.15;1.70;;;26.20;92.10;;;;;;4223037;28;20990;-71
2022/08/14 04:07:21;;;;;;;2.75;1.90;;;26.20;92.30;;;;;;4226317;28;20229;-71
2022/08/14 04:09:24;;;;;;;2.40;1.95;;;26.20;92.60;;;;;;4221921;28;20214;-71
2022/08/14 04:11:28;;;;;;;1.90;1.70;;;26.20;92.10;;;;;;4219385;28;20214;-71
2022/08/14 04:13:31;;;;;;;2.92;1.85;;;26.20;92.10;;;;;;4217870;28;20214;-71
2022/08/14 04:15:34;;;;;;;2.42;2.08;;;26.20;92.20;;;;;;4227406;28;20242;-71
2022/08/14 04:17:36;;;;;;;2.05;1.60;;;26.20;92.20;;;;;;4224256;28;20214;-71
2022/08/14 04:19:39;;;;;;;1.70;1.60;;;26.20;92.20;;;;;;4220345;28;20211;-71
2022/08/14 04:21:42;;;;;;;2.30;2.10;;;26.20;92.10;;;;;;4219258;28;20237;-71
2022/08/14 04:23:47;;;;;;;2.28;2.00;;;26.20;92.30;;;;;;4222055;27;20218;-71
2022/08/14 04:25:51;;;;;;;2.95;2.00;;;26.20;92.20;;;;;;4215435;28;20260;-71
2022/08/14 04:27:54;;;;;;;2.03;1.83;;;26.20;92.30;;;;;;4225244;27;20265;-71
2022/08/14 04:29:57;;;;;;;2.17;1.98;;;26.20;92.30;;;;;;4220999;28;20274;-71
2022/08/14 04:31:59;;;;;;;2.13;1.77;;;26.10;92.40;;;;;;4216234;28;20218;-71
2022/08/14 04:34:04;;;;;;;2.45;2.00;;;26.10;92.20;;;;;;4223647;27;20278;-71
2022/08/14 04:36:07;;;;;;;1.98;1.88;;;26.10;92.10;;;;;;4217682;28;20229;-71
2022/08/14 04:45:14;;;;;;;2.05;1.95;;;26.10;92.20;;;;;;4221361;27;20237;-71
2022/08/14 04:49:36;;;;;;;2.28;2.00;;;26.10;92.30;;;;;;4214210;28;20194;-71
2022/08/14 04:51:39;;;;;;;1.88;1.77;;;26.10;92.30;;;;;;4221008;27;20222;-71
2022/08/14 04:53:43;;;;;;;1.80;1.70;;;26.10;92.40;;;;;;4220662;27;20259;-71
2022/08/14 04:55:48;;;;;;;2.10;1.90;;;26.10;92.40;;;;;;4220867;28;20238;-71
2022/08/14 04:57:51;;;;;;;2.00;1.90;;;26.10;92.30;;;;;;4215323;28;20226;-71
2022/08/14 04:59:53;;;;;;;2.65;1.95;;;26.10;92.40;;;;;;4218804;27;20329;-71
2022/08/14 05:01:57;;;;;;;2.17;1.90;;;26.10;92.30;;;;;;4219751;27;20580;-71
2022/08/14 05:03:59;;;;;;;1.90;1.70;;;26.10;92.40;;;;;;4225192;28;20621;-71
2022/08/14 05:06:03;;;;;;;2.25;2.05;;;26.10;92.40;;;;;;4217998;27;20214;-71
2022/08/14 05:08:10;;;;;;;2.10;1.90;;;26.00;92.30;;;;;;4218247;27;20213;-70
2022/08/14 05:10:13;;;;;;;2.85;2.10;;;26.10;92.30;;;;;;4219720;27;20266;-71
2022/08/14 05:12:17;;;;;;;2.00;1.75;;;26.10;92.20;;;;;;4221334;28;20614;-71
2022/08/14 05:14:21;;;;;;;2.00;1.90;;;26.10;92.30;;;;;;4225562;27;20271;-71
2022/08/14 05:16:29;;;;;;;2.30;2.10;;;26.00;92.30;;;;;;4215455;27;20291;-71
2022/08/14 05:18:35;;;;;;;3.28;2.30;;;26.10;92.20;;;;;;4220895;27;20213;-71
2022/08/14 05:20:37;;;;;;;2.60;1.92;;;26.10;92.20;;;;;;4224480;28;20225;-71
2022/08/14 05:22:39;;;;;;;2.28;2.03;;;26.00;92.20;;;;;;4216766;28;20222;-71
2022/08/14 05:24:41;;;;;;;2.40;2.17;;;26.10;92.20;;;;;;4216964;28;20226;-71
2022/08/14 05:26:45;;;;;;;3.83;2.08;;;26.00;92.20;;;;;;4213769;28;20218;-71
2022/08/14 05:28:49;;;;;;;2.38;2.10;;;26.00;92.30;;;;;;4222868;28;20218;-71
2022/08/14 05:30:52;;;;;;;2.38;2.03;;;26.00;92.20;;;;;;4219911;28;20270;-71
2022/08/14 05:32:55;;;;;;;2.17;1.98;;;26.00;92.40;;;;;;4216454;28;20616;-71
2022/08/14 05:34:59;;;;;;;2.15;1.85;;;26.00;92.30;;;;;;4214828;28;20316;-71
2022/08/14 05:37:01;;;;;;;2.30;2.10;;;26.10;92.20;;;;;;4219497;28;20287;-71
2022/08/14 05:39:05;;;;;;;2.13;1.92;;;26.00;92.30;;;;;;4221922;28;20214;-71
2022/08/14 05:41:11;;;;;;;1.90;1.70;;;26.00;92.40;;;;;;4220714;28;20210;-70
2022/08/14 05:43:14;;;;;;;2.03;1.70;;;26.10;92.40;;;;;;4227721;28;20259;-71
2022/08/14 05:45:18;;;;;;;1.92;1.77;;;26.00;92.30;;;;;;4217238;28;20226;-71
2022/08/14 05:47:21;;;;;;;2.95;2.10;;;26.10;92.40;;;;;;4221441;28;20627;-71
2022/08/14 05:49:23;;;;;;;2.28;1.92;;;26.00;92.30;;;;;;4218411;28;20720;-71
2022/08/14 05:51:27;;;;;;;1.98;1.77;;;26.00;92.30;;;;;;4223632;28;20217;-71
2022/08/14 05:53:29;;;;;;;1.75;1.65;;;26.00;92.40;;;;;;4224243;28;20222;-71
2022/08/14 05:55:32;;;;;;;2.35;2.10;;;26.10;92.40;;;;;;4222180;28;20266;-71
2022/08/14 05:57:34;;;;;;;2.08;1.88;;;26.00;92.40;;;;;;4222936;27;20313;-71
2022/08/14 05:59:36;;;;;;;2.15;1.70;;;26.10;92.40;;;;;;4223946;28;20255;-71
2022/08/14 06:01:40;;;;;;;1.70;1.60;;;26.00;92.30;;;;;;4225106;28;20274;-71
2022/08/14 06:03:42;;;;;;;2.40;2.20;;;26.10;92.50;;;;;;4220677;28;20895;-71
2022/08/14 06:05:46;;;;;;;1.92;1.83;;;26.00;92.40;;;;;;4220682;28;20666;-71
2022/08/14 06:07:48;;;;;;;2.75;1.90;;;26.00;92.30;;;;;;4226613;28;20266;-71
2022/08/14 06:09:50;;;;;;;2.38;2.17;;;26.00;92.30;;;;;;4225422;28;20271;-71
2022/08/14 06:11:53;;;;;;;3.20;2.08;;;26.00;92.20;;;;;;4218858;28;20221;-71
2022/08/14 06:13:55;;;;;;;2.13;2.00;;;26.00;92.40;;;;;;4222460;28;20225;-71
2022/08/14 06:15:57;;;;;;;2.65;2.17;;;26.10;92.20;;;;;;4225349;28;20707;-71
2022/08/14 06:18:01;;;;;;;2.20;2.00;;;26.10;92.20;;;;;;4226777;28;20705;-71
2022/08/14 06:20:04;;;;;;;1.80;1.67;;;26.00;92.40;;;;;;4227054;28;20354;-71
2022/08/14 06:22:06;;;;;;;3.28;1.98;;;26.10;92.30;;;;;;4219457;28;20294;-71
2022/08/14 06:24:09;;;;;;;2.25;2.05;;;26.10;92.40;;;;;;4215641;28;20218;-71
2022/08/14 06:26:11;;;;;;;2.03;1.90;;;26.00;92.30;;;;;;4219397;28;20218;-71
2022/08/14 06:28:17;;;;;;;2.53;2.33;;;26.00;92.20;;;;;;4226381;27;20691;-71
2022/08/14 06:30:24;;;;;;;2.25;2.05;;;26.00;92.40;;;;;;4221727;28;20649;-71
2022/08/14 06:32:26;;;;;;;1.85;1.75;;;26.10;92.20;;;;;;4224651;28;20263;-71
2022/08/14 06:34:30;;;;;;;2.20;1.92;;;26.10;92.20;;;;;;4216670;28;20223;-71
2022/08/14 06:36:32;;;;;;;2.30;2.10;;;26.10;92.20;;;;;;4220211;28;20241;-71
2022/08/14 06:38:34;;;;;;;2.08;1.88;;;26.10;92.30;;;;;;4220322;27;20218;-71
2022/08/14 06:40:38;;;;;;;2.45;2.25;;;26.10;92.20;;;;;;4217641;27;20214;-71
2022/08/14 06:42:40;;;;;;;2.22;1.92;;;26.00;92.20;;;;;;4221105;28;20550;-71
2022/08/14 06:44:43;;;;;;;1.95;1.75;;;26.00;92.30;;;;;;4220196;28;20251;-71
2022/08/14 06:46:46;;;;;;;3.63;2.13;;;26.00;92.30;;;;;;4214945;28;20238;-71
2022/08/14 06:48:49;;;;;;;2.08;1.85;;;26.10;92.30;;;;;;4215717;28;20226;-71
2022/08/14 06:50:54;;;;;;;2.25;1.88;;;26.10;92.40;;;;;;4224680;27;20205;-71
2022/08/14 06:52:57;;;;;;;2.20;1.90;;;26.00;92.20;;;;;;4218069;28;20214;-71
2022/08/14 06:54:59;;;;;;;2.55;1.90;;;26.00;92.20;;;;;;4221283;27;20711;-71
2022/08/14 06:57:01;;;;;;;2.42;2.00;;;26.10;92.20;;;;;;4217176;28;20252;-71
2022/08/14 06:59:03;;;;;;;2.60;1.83;;;26.00;92.20;;;;;;4224549;27;20222;-71
2022/08/14 07:05:48;;;;;;;2.22;2.00;;;26.10;92.40;;;;;;4215478;28;20198;-71
2022/08/14 07:07:52;;;;;;;2.10;1.90;;;26.10;92.20;;;;;;4222594;28;20226;-71
2022/08/14 07:09:54;;;;;;;2.40;1.83;;;26.10;92.20;;;;;;4218530;28;20225;-71
2022/08/14 07:11:56;;;;;;;2.10;1.90;;;26.10;92.40;;;;;;4226820;28;20201;-71
2022/08/14 07:13:59;;;;;;;1.88;1.75;;;26.10;92.20;;;;;;4214778;28;20272;-71
2022/08/14 07:16:01;;;;;;;2.08;1.75;;;26.10;92.40;;;;;;4224716;28;20272;-71
2022/08/14 07:18:04;;;;;;;1.88;1.77;;;26.10;92.40;;;;;;4223417;28;20255;-71
2022/08/14 07:20:08;;;;;;;2.53;1.92;;;26.10;92.30;;;;;;4222904;28;20686;-71
2022/08/14 07:22:10;;;;;;;2.15;1.88;;;26.10;92.40;;;;;;4222508;28;20246;-71
2022/08/14 07:24:14;;;;;;;2.05;1.83;;;26.10;92.50;;;;;;4219455;28;20259;-71
2022/08/14 07:26:16;;;;;;;2.10;1.90;;;26.10;92.20;;;;;;4213628;28;20680;-71
2022/08/14 07:28:22;;;;;;;2.13;1.90;;;26.10;92.20;;;;;;4217154;28;20263;-71
2022/08/14 07:30:24;;;;;;;2.17;1.98;;;26.10;92.20;;;;;;4216724;28;20938;-71
2022/08/14 07:32:26;;;;;;;2.65;1.90;;;26.10;92.20;;;;;;4215693;28;20270;-71
2022/08/14 07:34:29;;;;;;;2.33;2.10;;;26.10;92.20;;;;;;4214472;28;20221;-71
2022/08/14 07:36:31;;;;;;;1.88;1.77;;;26.10;92.10;;;;;;4216812;28;20210;-71
2022/08/14 07:38:34;;;;;;;2.83;1.98;;;26.20;92.10;;;;;;4213525;28;20238;-71
2022/08/14 07:40:38;;;;;;;2.10;1.90;;;26.20;92.10;;;;;;4214292;28;20217;-70
2022/08/14 07:42:41;;;;;;;2.20;2.00;;;26.20;92.10;;;;;;4212625;28;20638;-71
2022/08/14 07:44:43;;;;;;;2.10;1.90;;;26.10;92.10;;;;;;4220029;28;21313;-71
2022/08/14 07:46:46;;;;;;;2.13;1.77;;;26.20;92.10;;;;;;4215644;28;20234;-71
2022/08/14 07:48:48;;;;;;;2.20;1.90;;;26.20;92.00;;;;;;4213497;28;20210;-71
2022/08/14 07:50:50;;;;;;;3.00;1.90;;;26.20;92.20;;;;;;4217527;28;20267;-71
2022/08/14 07:52:52;;;;;;;1.90;1.80;;;26.20;92.20;;;;;;4215500;28;20227;-71
2022/08/14 07:54:55;;;;;;;2.75;1.80;;;26.20;92.20;;;;;;4215453;28;20222;-71
2022/08/14 07:56:59;;;;;;;2.30;1.92;;;26.20;92.20;;;;;;4215847;28;20296;-71
2022/08/14 07:59:02;;;;;;;2.10;1.90;;;26.20;92.00;;;;;;4217963;28;20727;-70
2022/08/14 08:01:05;;;;;;;1.90;1.80;;;26.20;91.90;;;;;;4217014;28;20280;-71
2022/08/14 08:03:09;;;;;;;1.80;1.70;;;26.20;92.10;;;;;;4216371;28;20287;-71
2022/08/14 08:05:13;;;;;;;2.10;1.90;;;26.20;92.20;;;;;;4212862;28;20260;-71
2022/08/14 08:07:16;;;;;;;2.00;1.90;;;26.20;92.00;;;;;;4215536;28;20613;-71
2022/08/14 08:09:21;;;;;;;2.05;1.88;;;26.20;91.90;;;;;;4216557;28;20565;-71
2022/08/14 08:11:24;;;;;;;2.28;2.08;;;26.20;92.00;;;;;;4217255;28;20223;-71
2022/08/14 08:13:29;;;;;;;2.55;1.80;;;26.20;91.90;;;;;;4213062;28;20984;-71
2022/08/14 08:15:34;;;;;;;2.85;1.80;;;26.20;91.90;;;;;;4213550;28;20492;-71
2022/08/14 08:17:38;;;;;;;2.63;2.13;;;26.20;91.90;;;;;;4222572;28;20370;-71
2022/08/14 08:19:40;;;;;;;2.05;1.90;;;26.20;92.00;;;;;;4224995;28;20221;-71
2022/08/14 08:21:42;;;;;;;1.90;1.80;;;26.30;92.10;;;;;;4225894;27;20265;-71
2022/08/14 08:23:45;;;;;;;1.88;1.77;;;26.20;92.10;;;;;;4220724;28;20283;-71
2022/08/14 08:25:49;;;;;;;1.85;1.75;;;26.30;92.50;;;;;;4224426;27;20222;-71
2022/08/14 08:28:00;;;;;;;1.95;1.85;;;26.30;92.50;;;;;;4218325;27;20287;-71
2022/08/14 08:30:08;;;;;;;1.80;1.70;;;26.30;92.70;;;;;;4220589;27;20221;-71
2022/08/14 08:32:10;;;;;;;2.03;1.80;;;26.30;93.10;;;;;;4221800;27;20217;-71
2022/08/14 08:34:14;;;;;;;2.30;2.10;;;26.30;92.90;;;;;;4225594;27;20206;-71
2022/08/14 08:36:17;;;;;;;2.75;1.80;;;26.40;93.00;;;;;;4227488;27;20254;-71
2022/08/14 08:38:22;;;;;;;1.92;1.83;;;26.30;92.90;;;;;;4217629;27;20287;-71
2022/08/14 08:40:26;;;;;;;2.58;1.98;;;26.40;92.90;;;;;;4221663;27;20234;-71
2022/08/14 08:42:28;;;;;;;2.05;1.90;;;26.40;92.80;;;;;;4219138;28;20218;-71
2022/08/14 08:44:31;;;;;;;2.20;2.00;;;26.30;92.70;;;;;;4225470;28;20230;-71
2022/08/14 08:46:34;;;;;;;2.08;1.98;;;26.30;92.70;;;;;;4225954;28;20275;-71
2022/08/14 08:48:44;;;;;;;1.70;1.60;;;26.40;92.60;;;;;;4221791;28;20255;-71
2022/08/14 08:50:46;;;;;;;2.08;1.98;;;26.40;92.90;;;;;;4217796;27;20695;-71
2022/08/14 08:52:50;;;;;;;1.98;1.65;;;26.40;92.60;;;;;;4223130;27;20218;-71
2022/08/14 08:54:54;;;;;;;1.95;1.85;;;26.40;92.60;;;;;;4217831;27;20219;-71
2022/08/14 08:56:57;;;;;;;2.10;2.00;;;26.40;92.70;;;;;;4226469;27;20214;-71
2022/08/14 08:58:59;;;;;;;1.67;1.58;;;26.40;92.60;;;;;;4220555;28;20685;-71
2022/08/14 09:01:01;;;;;;;2.50;1.90;;;26.50;92.70;;;;;;4225622;27;20225;-71
2022/08/14 09:03:08;;;;;;;2.50;1.95;;;26.40;92.90;;;;;;4226370;28;20282;-71
2022/08/14 09:05:10;;;;;;;2.10;1.90;;;26.40;92.70;;;;;;4224103;28;20229;-71
2022/08/14 09:07:13;;;;;;;1.95;1.85;;;26.50;93.00;;;;;;4219816;28;20215;-71
2022/08/14 09:09:20;;;;;;;1.80;1.70;;;26.50;93.00;;;;;;4216082;28;20263;-71
2022/08/14 09:11:23;;;;;;;2.83;1.65;;;26.50;92.80;;;;;;4217572;27;20221;-71
2022/08/14 09:13:26;;;;;;;3.05;2.10;;;26.40;93.20;;;;;;4219911;28;20278;-71
2022/08/14 09:15:28;;;;;;;1.77;1.67;;;26.40;92.80;;;;;;4221448;28;20272;-71
2022/08/14 09:17:32;;;;;;;1.90;1.80;;;26.50;92.60;;;;;;4225490;28;20218;-70
2022/08/14 09:19:37;;;;;;;2.38;1.90;;;26.50;92.70;;;;;;4219460;28;21019;-71
2022/08/14 09:21:39;;;;;;;2.17;1.98;;;26.50;92.80;;;;;;4221984;28;20612;-71
2022/08/14 09:23:42;;;;;;;2.45;2.20;;;26.50;92.70;;;;;;4215470;28;20272;-71
2022/08/14 09:25:46;;;;;;;2.10;1.77;;;26.40;92.80;;;;;;4217740;28;21181;-71
2022/08/14 09:27:48;;;;;;;2.00;1.80;;;26.50;92.60;;;;;;4218812;28;20661;-71
2022/08/14 09:29:51;;;;;;;2.00;1.65;;;26.50;93.10;;;;;;4218511;28;20222;-71
2022/08/14 09:31:56;;;;;;;2.53;1.85;;;26.50;93.10;;;;;;4213728;28;20287;-71
2022/08/14 09:34:08;;;;;;;2.10;1.90;;;26.50;93.00;;;;;;4220650;28;20682;-71
2022/08/14 09:36:35;;;;;;;2.10;1.92;;;26.50;93.00;;;;;;4215668;28;20263;-71
2022/08/14 09:38:47;;;;;;;2.10;1.90;;;26.50;92.80;;;;;;4218609;28;20694;-71
2022/08/14 09:40:59;;;;;;;2.10;1.90;;;26.50;93.10;;;;;;4225661;27;20279;-71
2022/08/14 09:43:11;;;;;;;2.10;1.98;;;26.50;92.90;;;;;;4226770;28;20209;-71
2022/08/14 09:45:16;;;;;;;2.08;1.98;;;26.50;93.00;;;;;;4214931;28;20263;-71
2022/08/14 09:47:20;;;;;;;1.80;1.70;;;26.50;93.20;;;;;;4221679;28;20218;-71
2022/08/14 09:49:31;;;;;;;1.95;1.70;;;26.50;93.70;;;;;;4225596;28;20346;-71
2022/08/14 09:51:41;;;;;;;2.40;1.65;;;26.50;92.80;;;;;;4223786;28;20259;-71
2022/08/14 09:53:48;;;;;;;2.08;1.73;;;26.50;92.90;;;;;;4217198;28;20213;-71
2022/08/14 09:55:58;;;;;;;2.00;1.80;;;26.60;93.00;;;;;;4221985;28;20230;-71
2022/08/14 09:58:12;;;;;;;2.00;1.80;;;26.50;92.60;;;;;;4220990;28;20678;-71
2022/08/14 10:00:17;;;;;;;2.53;2.00;;;26.50;92.80;;;;;;4218927;27;20218;-71
2022/08/14 10:02:22;;;;;;;1.95;1.60;;;26.50;92.80;;;;;;4218627;27;20206;-71
2022/08/14 10:04:27;;;;;;;2.35;1.90;;;26.60;92.90;;;;;;4225186;27;20222;-71
2022/08/14 10:06:30;;;;;;;2.28;1.95;;;26.60;93.10;;;;;;4217945;28;20210;-71
2022/08/14 10:08:43;;;;;;;1.92;1.60;;;26.60;92.80;;;;;;4221891;28;20264;-71
2022/08/14 10:10:46;;;;;;;1.92;1.73;;;26.60;92.60;;;;;;4217501;28;20213;-71
2022/08/14 10:12:48;;;;;;;1.90;1.80;;;26.60;92.60;;;;;;4216948;28;20280;-71
2022/08/14 10:14:51;;;;;;;1.95;1.85;;;26.60;92.70;;;;;;4212744;28;20214;-71
2022/08/14 10:16:56;;;;;;;1.75;1.52;;;26.60;92.80;;;;;;4221842;28;20210;-71
2022/08/14 10:19:05;;;;;;;1.50;1.40;;;26.70;92.70;;;;;;4217732;27;20245;-71
2022/08/14 10:21:10;;;;;;;2.00;1.90;;;26.60;92.70;;;;;;4227639;27;20221;-71
2022/08/14 10:23:14;;;;;;;2.08;1.88;;;26.70;92.90;;;;;;4216848;27;20279;-71
2022/08/14 10:25:18;;;;;;;1.95;1.75;;;26.60;92.80;;;;;;4220570;27;20214;-71
2022/08/14 10:27:23;;;;;;;2.03;1.92;;;26.70;92.70;;;;;;4221679;28;20954;-71
2022/08/14 10:29:33;;;;;;;2.22;1.65;;;26.70;92.50;;;;;;4223966;27;20266;-71
2022/08/14 10:31:36;;;;;;;2.00;1.80;;;26.70;92.70;;;;;;4220027;28;20213;-71
2022/08/14 10:33:38;;;;;;;1.77;1.67;;;26.70;92.70;;;;;;4223418;28;20288;-71
2022/08/14 10:35:43;;;;;;;2.05;1.60;;;26.70;92.60;;;;;;4218650;28;20214;-71
2022/08/14 10:37:48;;;;;;;1.45;1.35;;;26.70;92.50;;;;;;4219852;28;20264;-71
2022/08/14 10:39:59;;;;;;;2.20;1.80;;;26.70;92.40;;;;;;4227557;27;20241;-71
2022/08/14 10:42:05;;;;;;;1.83;1.70;;;26.70;92.40;;;;;;4218254;28;20217;-71
2022/08/14 10:44:10;;;;;;;2.67;1.67;;;26.80;92.50;;;;;;4216910;28;20678;-71
2022/08/14 10:46:14;;;;;;;2.90;1.55;;;26.80;92.40;;;;;;4225902;28;20647;-71
2022/08/14 10:48:17;;;;;;;1.70;1.60;;;26.80;92.60;;;;;;4219688;28;20266;-71
2022/08/14 10:50:29;;;;;;;1.90;1.77;;;26.80;92.70;;;;;;4222558;28;20206;-71
2022/08/14 10:52:34;;;;;;;3.08;1.65;;;26.80;92.40;;;;;;4221033;27;20218;-71
2022/08/14 10:54:38;;;;;;;2.20;2.00;;;26.80;92.50;;;;;;4225741;28;20217;-71
2022/08/14 10:56:40;;;;;;;1.85;1.75;;;26.80;92.60;;;;;;4222338;28;20221;-70
2022/08/14 10:58:44;;;;;;;1.83;1.73;;;26.80;92.40;;;;;;4226276;27;20239;-71
2022/08/14 11:00:55;;;;;;;2.08;1.88;;;26.80;92.60;;;;;;4222515;27;20247;-71
2022/08/14 11:03:01;;;;;;;1.80;1.70;;;26.80;92.30;;;;;;4221413;28;20268;-71
2022/08/14 11:05:07;;;;;;;1.95;1.83;;;26.80;92.30;;;;;;4220153;28;20280;-71